createdAt,value
2023-04-03T00:01:19.716Z,63.00
2023-04-03T00:03:46.745Z,62.13
2023-04-03T00:06:14.209Z,62.19
2023-04-03T00:08:41.746Z,62.57
2023-04-03T00:11:09.559Z,62.89
2023-04-03T00:13:36.951Z,62.13
2023-04-03T00:16:04.533Z,61.82
2023-04-03T00:18:31.775Z,61.90
2023-04-03T00:20:59.024Z,62.79
2023-04-03T00:23:25.992Z,62.58
2023-04-03T00:25:53.769Z,62.46
2023-04-03T00:28:20.943Z,62.54
2023-04-03T00:30:51.684Z,62.65
2023-04-03T00:33:19.144Z,62.62
2023-04-03T00:35:46.829Z,63.29
2023-04-03T00:38:13.844Z,63.49
2023-04-03T00:40:45.487Z,63.77
2023-04-03T00:43:25.168Z,63.60
2023-04-03T00:45:54.563Z,63.58
2023-04-03T00:48:27.218Z,63.64
2023-04-03T00:50:54.834Z,63.94
2023-04-03T00:53:40.457Z,64.63
2023-04-03T00:56:11.541Z,65.50
2023-04-03T00:58:49.241Z,65.03
2023-04-03T01:01:21.932Z,64.91
2023-04-03T01:03:49.116Z,65.18
2023-04-03T01:06:18.569Z,65.01
2023-04-03T01:08:50.816Z,64.80
2023-04-03T01:11:17.916Z,65.12
2023-04-03T01:13:45.690Z,65.29
2023-04-03T01:16:12.823Z,65.48
2023-04-03T01:18:41.515Z,64.96
2023-04-03T01:21:28.085Z,65.53
2023-04-03T01:24:34.223Z,65.22
2023-04-03T01:27:05.034Z,65.34
2023-04-03T01:29:32.797Z,64.99
2023-04-03T01:32:02.334Z,65.05
2023-04-03T01:34:31.169Z,64.84
2023-04-03T01:36:58.914Z,63.31
2023-04-03T01:39:25.964Z,63.79
2023-04-03T01:41:53.175Z,63.95
2023-04-03T01:44:29.632Z,64.58
2023-04-03T01:46:57.057Z,64.73
2023-04-03T01:49:25.490Z,64.93
2023-04-03T01:51:52.515Z,64.38
2023-04-03T01:54:19.430Z,63.11
2023-04-03T01:56:46.483Z,63.76
2023-04-03T01:59:14.365Z,63.69
2023-04-03T02:01:41.599Z,63.69
2023-04-03T02:04:08.759Z,65.21
2023-04-03T02:06:36.098Z,65.13
2023-04-03T02:09:03.607Z,65.41
2023-04-03T02:11:31.716Z,64.78
2023-04-03T02:13:58.793Z,65.11
2023-04-03T02:16:25.903Z,65.30
2023-04-03T02:18:53.232Z,64.76
2023-04-03T02:21:20.450Z,64.42
2023-04-03T02:23:48.502Z,65.04
2023-04-03T02:26:17.264Z,64.88
2023-04-03T02:28:46.112Z,64.29
2023-04-03T02:31:13.461Z,64.25
2023-04-03T02:33:42.452Z,64.33
2023-04-03T02:36:11.668Z,64.69
2023-04-03T02:38:41.890Z,64.21
2023-04-03T02:41:12.436Z,64.77
2023-04-03T02:43:39.953Z,64.82
2023-04-03T02:46:08.312Z,64.61
2023-04-03T02:48:36.417Z,64.76
2023-04-03T02:51:03.721Z,64.58
2023-04-03T02:53:33.886Z,64.03
2023-04-03T02:56:07.122Z,64.62
2023-04-03T02:58:34.393Z,64.51
2023-04-03T03:01:03.175Z,64.42
2023-04-03T03:03:31.424Z,64.65
2023-04-03T03:06:08.893Z,65.41
2023-04-03T03:08:36.616Z,65.15
2023-04-03T03:11:04.880Z,65.19
2023-04-03T03:13:32.199Z,65.22
2023-04-03T03:16:00.994Z,65.39
2023-04-03T03:18:28.200Z,65.55
2023-04-03T03:20:59.654Z,66.44
2023-04-03T03:23:29.004Z,65.98
2023-04-03T03:26:01.359Z,65.61
2023-04-03T03:28:28.854Z,65.88
2023-04-03T03:30:55.979Z,65.76
2023-04-03T03:33:23.768Z,65.87
2023-04-03T03:35:51.195Z,66.18
2023-04-03T03:38:18.165Z,66.01
2023-04-03T03:40:45.545Z,66.24
2023-04-03T03:43:12.569Z,66.31
2023-04-03T03:45:39.850Z,66.50
2023-04-03T03:48:07.380Z,66.61
2023-04-03T03:50:34.785Z,66.45
2023-04-03T03:53:02.049Z,66.59
2023-04-03T03:55:29.252Z,66.76
2023-04-03T03:57:58.146Z,66.07
2023-04-03T04:00:26.024Z,66.05
2023-04-03T04:02:58.735Z,65.89
2023-04-03T04:05:27.077Z,66.01
2023-04-03T04:07:54.909Z,65.96
2023-04-03T04:10:22.912Z,66.10
2023-04-03T04:12:52.542Z,66.53
2023-04-03T04:15:24.123Z,66.64
2023-04-03T04:17:51.948Z,66.49
2023-04-03T04:20:19.132Z,66.51
2023-04-03T04:22:47.862Z,66.55
2023-04-03T04:25:15.158Z,66.30
2023-04-03T04:27:42.272Z,66.67
2023-04-03T04:30:11.079Z,66.94
2023-04-03T04:32:38.461Z,67.07
2023-04-03T04:35:06.855Z,68.01
2023-04-03T04:37:36.680Z,67.65
2023-04-03T04:40:04.316Z,67.49
2023-04-03T04:42:31.428Z,68.46
2023-04-03T04:44:58.497Z,68.53
2023-04-03T04:47:25.695Z,68.88
2023-04-03T04:49:53.157Z,68.93
2023-04-03T04:52:20.472Z,69.69
2023-04-03T04:54:47.699Z,69.84
2023-04-03T04:57:14.706Z,69.97
2023-04-03T04:59:41.907Z,70.29
2023-04-03T05:02:08.999Z,70.35
2023-04-03T05:04:36.896Z,70.33
2023-04-03T05:07:09.779Z,70.90
2023-04-03T05:09:37.992Z,71.58
2023-04-03T05:12:05.980Z,71.39
2023-04-03T05:14:39.874Z,71.57
2023-04-03T05:17:09.290Z,71.31
2023-04-03T05:19:40.372Z,70.99
2023-04-03T05:22:09.227Z,71.52
2023-04-03T05:24:36.843Z,71.91
2023-04-03T05:27:05.139Z,70.71
2023-04-03T05:29:35.082Z,71.72
2023-04-03T05:32:02.973Z,71.81
2023-04-03T05:34:30.535Z,72.26
2023-04-03T05:36:57.778Z,72.22
2023-04-03T05:39:26.701Z,72.33
2023-04-03T05:41:53.728Z,72.72
2023-04-03T05:44:20.800Z,71.11
2023-04-03T05:46:49.743Z,68.10
2023-04-03T05:49:16.740Z,69.52
2023-04-03T05:51:45.864Z,67.64
2023-04-03T05:54:26.000Z,68.38
2023-04-03T05:56:57.701Z,68.49
2023-04-03T05:59:26.059Z,68.41
2023-04-03T06:01:55.442Z,68.17
2023-04-03T06:04:22.728Z,68.24
2023-04-03T06:06:58.590Z,67.50
2023-04-03T06:09:30.288Z,68.65
2023-04-03T06:11:59.706Z,68.60
2023-04-03T06:14:28.363Z,68.48
2023-04-03T06:16:55.994Z,67.72
2023-04-03T06:19:23.885Z,67.81
2023-04-03T06:21:55.328Z,67.89
2023-04-03T06:24:24.568Z,68.33
2023-04-03T06:26:53.503Z,67.75
2023-04-03T06:29:21.687Z,68.24
2023-04-03T06:31:49.665Z,67.99
2023-04-03T06:34:18.192Z,67.79
2023-04-03T06:36:50.059Z,67.75
2023-04-03T06:39:23.303Z,68.14
2023-04-03T06:41:51.967Z,68.56
2023-04-03T06:44:26.585Z,68.25
2023-04-03T06:46:55.524Z,67.46
2023-04-03T06:49:22.780Z,67.95
2023-04-03T06:51:50.492Z,67.98
2023-04-03T06:54:17.623Z,68.86
2023-04-03T06:56:44.788Z,69.88
2023-04-03T06:59:14.818Z,70.85
2023-04-03T07:01:43.006Z,71.10
2023-04-03T07:04:10.142Z,70.97
2023-04-03T07:06:37.293Z,71.77
2023-04-03T07:09:04.350Z,72.05
2023-04-03T07:11:33.255Z,72.58
2023-04-03T07:14:02.099Z,72.16
2023-04-03T07:16:32.855Z,72.37
2023-04-03T07:19:00.362Z,72.65
2023-04-03T07:21:27.365Z,72.21
2023-04-03T07:23:54.502Z,72.49
2023-04-03T07:26:22.294Z,72.28
2023-04-03T07:28:51.067Z,72.45
2023-04-03T07:31:19.649Z,72.26
2023-04-03T07:33:47.278Z,71.36
2023-04-03T07:36:20.259Z,71.77
2023-04-03T07:38:47.318Z,72.71
2023-04-03T07:41:19.951Z,72.28
2023-04-03T07:43:48.101Z,72.17
2023-04-03T07:46:15.277Z,72.31
2023-04-03T07:48:42.639Z,72.20
2023-04-03T07:51:10.917Z,72.15
2023-04-03T07:53:37.976Z,71.95
2023-04-03T07:56:05.169Z,72.07
2023-04-03T07:58:32.325Z,72.01
2023-04-03T08:00:59.511Z,73.26
2023-04-03T08:03:26.780Z,72.93
2023-04-03T08:05:54.697Z,72.34
2023-04-03T08:08:23.937Z,73.02
2023-04-03T08:10:55.258Z,74.67
2023-04-03T08:13:23.250Z,74.44
2023-04-03T08:15:50.573Z,74.84
2023-04-03T08:18:18.173Z,75.81
2023-04-03T08:20:46.058Z,76.26
2023-04-03T08:23:13.176Z,76.69
2023-04-03T08:25:41.990Z,76.79
2023-04-03T08:28:09.720Z,77.42
2023-04-03T08:30:37.250Z,77.74
2023-04-03T08:33:04.496Z,77.62
2023-04-03T08:35:31.646Z,77.51
2023-04-03T08:37:59.033Z,77.42
2023-04-03T08:40:26.287Z,76.83
2023-04-03T08:43:14.384Z,77.70
2023-04-03T08:45:54.983Z,77.18
2023-04-03T08:48:40.064Z,76.75
2023-04-03T08:51:16.523Z,78.00
2023-04-03T08:53:52.983Z,77.67
2023-04-03T08:56:20.281Z,76.42
2023-04-03T08:59:01.905Z,75.76
2023-04-03T09:01:36.308Z,78.38
2023-04-03T09:04:11.709Z,75.37
2023-04-03T09:06:44.447Z,76.23
2023-04-03T09:09:28.297Z,76.78
2023-04-03T09:11:58.907Z,77.54
2023-04-03T09:15:01.011Z,78.28
2023-04-03T09:17:37.819Z,76.63
2023-04-03T09:20:35.369Z,76.75
2023-04-03T09:23:28.560Z,78.17
2023-04-03T09:26:04.828Z,80.56
2023-04-03T09:28:46.821Z,78.90
2023-04-03T09:31:25.735Z,80.52
2023-04-03T09:34:03.938Z,78.80
2023-04-03T09:36:45.456Z,78.40
2023-04-03T09:39:25.443Z,79.73
2023-04-03T09:42:18.388Z,79.21
2023-04-03T09:44:55.870Z,78.68
2023-04-03T09:47:37.496Z,79.83
2023-04-03T09:50:14.160Z,78.93
2023-04-03T09:53:05.248Z,78.73
2023-04-03T09:55:32.181Z,80.48
2023-04-03T09:58:04.711Z,79.33
2023-04-03T10:00:37.911Z,79.40
2023-04-03T10:03:06.429Z,79.10
2023-04-03T10:05:37.335Z,78.96
2023-04-03T10:08:10.669Z,80.26
2023-04-03T10:10:38.364Z,80.72
2023-04-03T10:13:22.428Z,81.38
2023-04-03T10:16:08.041Z,83.71
2023-04-03T10:18:51.096Z,82.75
2023-04-03T10:21:58.376Z,82.90
2023-04-03T10:24:49.916Z,83.98
2023-04-03T10:27:28.077Z,84.33
2023-04-03T10:30:37.712Z,85.69
2023-04-03T10:33:29.124Z,85.19
2023-04-03T10:36:14.467Z,84.93
2023-04-03T10:38:57.332Z,86.03
2023-04-03T10:41:39.298Z,87.17
2023-04-03T10:44:06.238Z,86.39
2023-04-03T10:46:39.471Z,85.40
2023-04-03T10:49:32.385Z,85.69
2023-04-03T10:52:14.615Z,84.83
2023-04-03T10:54:47.468Z,84.31
2023-04-03T10:57:17.751Z,84.00
2023-04-03T11:00:10.067Z,83.56
2023-04-03T11:03:02.178Z,82.83
2023-04-03T11:05:41.630Z,82.03
2023-04-03T11:08:14.799Z,82.39
2023-04-03T11:10:49.741Z,82.42
2023-04-03T11:13:29.472Z,80.73
2023-04-03T11:15:59.015Z,80.56
2023-04-03T11:18:48.036Z,81.41
2023-04-03T11:21:28.668Z,81.54
2023-04-03T11:24:00.266Z,81.66
2023-04-03T11:26:38.123Z,81.44
2023-04-03T11:29:17.892Z,80.31
2023-04-03T11:32:03.248Z,80.08
2023-04-03T11:34:40.689Z,80.54
2023-04-03T11:37:33.652Z,80.38
2023-04-03T11:40:24.219Z,79.61
2023-04-03T11:42:56.336Z,78.90
2023-04-03T11:45:23.488Z,77.70
2023-04-03T11:47:54.847Z,77.43
2023-04-03T11:50:42.841Z,78.07
2023-04-03T11:53:13.129Z,78.93
2023-04-03T11:55:49.455Z,77.70
2023-04-03T11:58:20.097Z,77.92
2023-04-03T12:00:59.528Z,78.18
2023-04-03T12:03:30.742Z,78.75
2023-04-03T12:06:05.940Z,79.56
2023-04-03T12:08:45.900Z,80.17
2023-04-03T12:11:13.124Z,79.57
2023-04-03T12:13:55.085Z,78.79
2023-04-03T12:16:28.725Z,77.79
2023-04-03T12:19:15.893Z,78.75
2023-04-03T12:21:46.765Z,77.48
2023-04-03T12:24:16.407Z,78.02
2023-04-03T12:26:58.379Z,79.11
2023-04-03T12:29:34.281Z,79.39
2023-04-03T12:32:38.172Z,78.84
2023-04-03T12:35:20.522Z,79.83
2023-04-03T12:38:21.755Z,79.52
2023-04-03T12:40:54.531Z,78.86
2023-04-03T12:43:48.905Z,80.13
2023-04-03T12:46:17.553Z,81.36
2023-04-03T12:48:52.372Z,81.93
2023-04-03T12:51:35.517Z,81.38
2023-04-03T12:54:14.300Z,81.00
2023-04-03T12:56:41.421Z,79.38
2023-04-03T12:59:23.719Z,78.69
2023-04-03T13:02:02.227Z,79.35
2023-04-03T13:04:31.632Z,80.87
2023-04-03T13:07:00.137Z,79.56
2023-04-03T13:09:30.342Z,80.75
2023-04-03T13:12:18.059Z,80.79
2023-04-03T13:14:57.892Z,81.19
2023-04-03T13:17:26.051Z,80.75
2023-04-03T13:19:53.289Z,79.50
2023-04-03T13:22:44.610Z,79.74
2023-04-03T13:25:16.220Z,81.24
2023-04-03T13:27:45.082Z,80.76
2023-04-03T13:30:27.497Z,81.42
2023-04-03T13:32:57.834Z,82.31
2023-04-03T13:35:36.183Z,81.81
2023-04-03T13:38:08.346Z,82.47
2023-04-03T13:40:48.087Z,82.28
2023-04-03T13:43:25.644Z,81.50
2023-04-03T13:46:16.902Z,82.70
2023-04-03T13:48:46.978Z,83.51
2023-04-03T13:51:14.082Z,82.84
2023-04-03T13:53:57.402Z,82.54
2023-04-03T13:56:38.831Z,81.34
2023-04-03T13:59:17.341Z,82.31
2023-04-03T14:01:52.354Z,82.34
2023-04-03T14:04:26.834Z,82.12
2023-04-03T14:06:54.003Z,82.03
2023-04-03T14:09:23.463Z,82.11
2023-04-03T14:11:54.505Z,81.40
2023-04-03T14:14:25.172Z,84.08
2023-04-03T14:16:56.243Z,83.02
2023-04-03T14:19:25.648Z,85.02
2023-04-03T14:21:54.894Z,84.02
2023-04-03T14:24:22.813Z,84.82
2023-04-03T14:26:54.695Z,84.40
2023-04-03T14:29:23.248Z,85.13
2023-04-03T14:31:57.742Z,83.36
2023-04-03T14:34:31.346Z,85.30
2023-04-03T14:36:58.442Z,83.04
2023-04-03T14:39:26.008Z,85.01
2023-04-03T14:41:52.963Z,85.04
2023-04-03T14:44:19.974Z,85.71
2023-04-03T14:46:56.124Z,86.19
2023-04-03T14:49:30.567Z,85.18
2023-04-03T14:51:58.734Z,84.73
2023-04-03T14:54:30.157Z,84.85
2023-04-03T14:56:58.984Z,82.36
2023-04-03T14:59:32.826Z,84.06
2023-04-03T15:02:00.116Z,83.81
2023-04-03T15:04:27.604Z,85.02
2023-04-03T15:06:54.950Z,84.63
2023-04-03T15:09:27.397Z,82.61
2023-04-03T15:11:56.138Z,82.33
2023-04-03T15:14:35.407Z,81.45
2023-04-03T15:17:06.465Z,82.21
2023-04-03T15:19:42.887Z,83.89
2023-04-03T15:22:18.508Z,84.61
2023-04-03T15:24:45.793Z,85.46
2023-04-03T15:27:14.287Z,85.30
2023-04-03T15:29:43.130Z,84.88
2023-04-03T15:32:11.914Z,85.69
2023-04-03T15:34:39.484Z,86.45
2023-04-03T15:37:06.710Z,86.72
2023-04-03T15:39:33.778Z,87.10
2023-04-03T15:42:06.994Z,86.95
2023-04-03T15:44:35.809Z,87.05
2023-04-03T15:47:03.426Z,87.44
2023-04-03T15:49:32.079Z,88.21
2023-04-03T15:51:58.929Z,89.64
2023-04-03T15:54:26.471Z,90.73
2023-04-03T15:56:54.621Z,89.68
2023-04-03T15:59:21.767Z,89.38
2023-04-03T16:01:49.861Z,88.59
2023-04-03T16:04:18.634Z,89.08
2023-04-03T16:06:46.498Z,89.10
2023-04-03T16:09:13.774Z,89.51
2023-04-03T16:11:41.019Z,88.91
2023-04-03T16:14:09.023Z,87.88
2023-04-03T16:16:36.723Z,88.55
2023-04-03T16:19:04.351Z,89.21
2023-04-03T16:21:31.577Z,90.35
2023-04-03T16:24:02.737Z,90.61
2023-04-03T16:26:29.943Z,90.51
2023-04-03T16:28:57.012Z,90.85
2023-04-03T16:31:26.493Z,92.72
2023-04-03T16:33:53.857Z,92.47
2023-04-03T16:36:21.012Z,92.90
2023-04-03T16:38:49.358Z,94.07
2023-04-03T16:41:16.352Z,94.43
2023-04-03T16:46:10.265Z,94.58
2023-04-03T16:48:37.433Z,94.13
2023-04-03T16:51:04.559Z,95.35
2023-04-03T16:53:31.668Z,96.75
2023-04-03T16:55:59.598Z,97.03
2023-04-03T16:58:26.723Z,97.05
2023-04-03T17:00:54.823Z,97.36
2023-04-03T17:03:24.210Z,97.24
2023-04-03T17:05:51.235Z,97.57
2023-04-03T17:08:19.221Z,97.24
2023-04-03T17:10:46.394Z,97.99
2023-04-03T17:13:13.377Z,100.00
2023-04-03T17:15:40.959Z,100.00
2023-04-03T17:18:08.925Z,100.00
2023-04-03T17:20:38.827Z,98.60
2023-04-03T17:23:07.189Z,97.15
2023-04-03T17:25:34.284Z,98.04
2023-04-03T17:28:01.376Z,96.45
2023-04-03T17:30:28.467Z,97.59
2023-04-03T17:32:55.563Z,97.46
2023-04-03T17:35:22.709Z,96.53
2023-04-03T17:37:50.745Z,96.63
2023-04-03T17:40:18.889Z,96.32
2023-04-03T17:42:46.059Z,94.64
2023-04-03T17:45:13.256Z,95.34
2023-04-03T17:47:40.510Z,95.17
2023-04-03T17:50:08.150Z,96.08
2023-04-03T17:52:35.552Z,96.09
2023-04-03T17:55:03.853Z,95.23
2023-04-03T17:57:31.705Z,96.54
2023-04-03T17:59:58.817Z,97.42
2023-04-03T18:02:25.939Z,94.91
2023-04-03T18:04:54.077Z,97.11
2023-04-03T18:07:21.454Z,96.35
2023-04-03T18:09:49.764Z,95.86
2023-04-03T18:12:16.979Z,95.60
2023-04-03T18:14:44.970Z,94.50
2023-04-03T18:17:12.023Z,97.26
2023-04-03T18:19:38.970Z,96.33
2023-04-03T18:22:14.581Z,97.73
2023-04-03T18:24:43.609Z,96.72
2023-04-03T18:27:15.745Z,95.85
2023-04-03T18:29:45.154Z,95.46
2023-04-03T18:32:14.881Z,94.33
2023-04-03T18:34:42.472Z,95.53
2023-04-03T18:37:09.677Z,95.80
2023-04-03T18:39:37.050Z,97.95
2023-04-03T18:42:11.648Z,95.77
2023-04-03T18:44:41.271Z,95.38
2023-04-03T18:47:08.958Z,96.18
2023-04-03T18:49:39.217Z,94.75
2023-04-03T18:52:06.491Z,95.62
2023-04-03T18:54:33.574Z,94.48
2023-04-03T18:57:01.371Z,93.80
2023-04-03T18:59:28.466Z,93.96
2023-04-03T19:01:56.627Z,93.29
2023-04-03T19:04:24.192Z,93.47
2023-04-03T19:06:51.696Z,93.75
2023-04-03T19:09:19.078Z,94.83
2023-04-03T19:11:54.945Z,92.60
2023-04-03T19:14:22.085Z,92.57
2023-04-03T19:16:49.184Z,93.54
2023-04-03T19:19:16.490Z,94.30
2023-04-03T19:21:43.560Z,95.80
2023-04-03T19:24:12.354Z,93.59
2023-04-03T19:26:41.158Z,94.28
2023-04-03T19:29:09.088Z,94.87
2023-04-03T19:31:37.390Z,94.42
2023-04-03T19:34:06.464Z,94.22
2023-04-03T19:36:34.600Z,94.42
2023-04-03T19:39:02.012Z,94.12
2023-04-03T19:41:31.745Z,95.72
2023-04-03T19:43:59.033Z,94.24
2023-04-03T19:46:28.131Z,93.35
2023-04-03T19:48:55.558Z,91.77
2023-04-03T19:51:22.717Z,92.45
2023-04-03T19:53:49.855Z,92.98
2023-04-03T19:56:26.050Z,93.70
2023-04-03T19:58:55.911Z,92.83
2023-04-03T20:01:24.725Z,93.32
2023-04-03T20:03:52.278Z,92.97
2023-04-03T20:06:19.351Z,91.58
2023-04-03T20:08:46.553Z,91.09
2023-04-03T20:11:13.764Z,91.34
2023-04-03T20:13:40.774Z,90.19
2023-04-03T20:16:08.599Z,90.90
2023-04-03T20:18:35.963Z,92.17
2023-04-03T20:21:06.795Z,90.96
2023-04-03T20:23:34.891Z,91.56
2023-04-03T20:26:10.822Z,92.57
2023-04-03T20:28:42.683Z,93.39
2023-04-03T20:31:10.225Z,91.59
2023-04-03T20:33:38.123Z,91.92
2023-04-03T20:36:05.242Z,93.09
2023-04-03T20:38:32.276Z,92.46
2023-04-03T20:41:00.457Z,92.52
2023-04-03T20:43:28.776Z,91.12
2023-04-03T20:45:55.900Z,90.11
2023-04-03T20:48:22.878Z,90.93
2023-04-03T20:50:49.973Z,91.92
2023-04-03T20:53:19.266Z,89.86
2023-04-03T20:56:00.695Z,90.83
2023-04-03T20:58:34.535Z,90.02
2023-04-03T21:01:01.673Z,89.96
2023-04-03T21:03:32.920Z,91.45
2023-04-03T21:06:03.945Z,89.76
2023-04-03T21:09:08.672Z,91.15
2023-04-03T21:12:13.105Z,89.48
2023-04-03T21:15:17.629Z,90.09
2023-04-03T21:18:20.708Z,90.55
2023-04-03T21:20:47.995Z,89.41
2023-04-03T21:23:15.881Z,88.99
2023-04-03T21:25:45.434Z,90.44
2023-04-03T21:28:12.525Z,92.42
2023-04-03T21:30:39.863Z,92.99
2023-04-03T21:33:06.931Z,93.12
2023-04-03T21:35:33.975Z,91.12
2023-04-03T21:38:00.930Z,90.52
2023-04-03T21:40:27.999Z,89.01
2023-04-03T21:42:55.412Z,88.18
2023-04-03T21:45:22.703Z,88.19
2023-04-03T21:47:49.851Z,86.91
2023-04-03T21:50:18.196Z,84.37
2023-04-03T21:52:45.375Z,86.14
2023-04-03T21:55:12.693Z,84.65
2023-04-03T21:57:39.729Z,87.43
2023-04-03T22:00:07.680Z,87.70
2023-04-03T22:02:38.551Z,85.91
2023-04-03T22:05:05.929Z,84.05
2023-04-03T22:07:33.339Z,84.49
2023-04-03T22:10:00.246Z,85.23
2023-04-03T22:12:28.236Z,84.30
2023-04-03T22:14:55.317Z,85.89
2023-04-03T22:17:22.637Z,85.04
2023-04-03T22:19:49.622Z,86.14
2023-04-03T22:22:17.251Z,86.25
2023-04-03T22:24:47.266Z,86.23
2023-04-03T22:27:14.377Z,86.14
2023-04-03T22:29:41.580Z,87.34
2023-04-03T22:32:08.584Z,85.71
2023-04-03T22:34:37.890Z,87.09
2023-04-03T22:37:04.892Z,87.74
2023-04-03T22:39:31.952Z,84.56
2023-04-03T22:41:59.346Z,85.27
2023-04-03T22:44:29.656Z,84.89
2023-04-03T22:46:59.510Z,84.67
2023-04-03T22:49:26.436Z,88.54
2023-04-03T22:51:53.536Z,87.38
2023-04-03T22:54:23.092Z,88.14
2023-04-03T22:56:50.129Z,86.25
2023-04-03T22:59:17.370Z,85.54
2023-04-03T23:01:44.480Z,84.78
2023-04-03T23:04:11.607Z,84.23
2023-04-03T23:06:38.603Z,84.20
2023-04-03T23:09:05.599Z,84.06
2023-04-03T23:11:32.611Z,84.13
2023-04-03T23:13:59.983Z,84.00
2023-04-03T23:16:27.048Z,84.84
2023-04-03T23:18:54.184Z,83.73
2023-04-03T23:21:21.341Z,83.06
2023-04-03T23:23:48.400Z,83.59
2023-04-03T23:26:15.703Z,84.50
2023-04-03T23:28:42.698Z,84.45
2023-04-03T23:31:10.514Z,83.40
2023-04-03T23:33:38.678Z,82.83
2023-04-03T23:36:09.248Z,83.98
2023-04-03T23:38:37.041Z,84.43
2023-04-03T23:41:04.087Z,85.42
2023-04-03T23:43:32.705Z,86.74
2023-04-03T23:45:59.767Z,87.72
2023-04-03T23:48:26.862Z,85.68
2023-04-03T23:50:53.865Z,85.15
2023-04-03T23:53:21.039Z,85.27
2023-04-03T23:55:48.323Z,86.11
2023-04-03T23:58:18.610Z,86.36
